Time;durP1;ratioP1;P1;durP2;ratioP2;P2;SDS_P1;SDS_P2;PMS_P1;PMS_P2;Temp;Humidity;BMP_temperature;BMP_pressure;BME280_temperature;BME280_humidity;BME280_pressure;Samples;Min_cycle;Max_cycle;Signal;HPM_P1;HPM_P2
2021/10/14 00:01:33;;;;;;;0.30;0.30;;;;;;;9.56;88.64;99361.88;5064346;28;20064;-74
2021/10/14 00:03:59;;;;;;;0.30;0.30;;;;;;;9.50;88.76;99357.09;5054386;28;20439;-74
2021/10/14 00:06:25;;;;;;;0.30;0.30;;;;;;;9.51;88.92;99356.97;5019004;28;20056;-74
2021/10/14 00:08:50;;;;;;;0.30;0.30;;;;;;;9.54;88.88;99367.44;5072518;28;20515;-71
2021/10/14 00:11:17;;;;;;;0.30;0.30;;;;;;;9.52;89.09;99365.91;5064284;28;20584;-75
2021/10/14 00:13:43;;;;;;;0.30;0.30;;;;;;;9.55;89.25;99371.00;5037758;28;20416;-74
2021/10/14 00:16:08;;;;;;;0.30;0.30;;;;;;;9.47;89.12;99360.09;5037798;28;20109;-73
2021/10/14 00:18:34;;;;;;;0.30;0.30;;;;;;;9.56;88.80;99367.28;5072552;28;20079;-73
2021/10/14 00:21:00;;;;;;;0.30;0.30;;;;;;;9.57;89.08;99369.81;5040651;28;20048;-72
2021/10/14 00:23:26;;;;;;;0.30;0.30;;;;;;;9.54;88.94;99361.19;5039515;28;20420;-72
2021/10/14 00:25:52;;;;;;;0.30;0.30;;;;;;;9.53;89.09;99356.78;5066676;28;20044;-73
2021/10/14 00:28:18;;;;;;;0.30;0.30;;;;;;;9.56;88.99;99365.44;5023179;28;20339;-72
2021/10/14 00:30:44;;;;;;;0.30;0.30;;;;;;;9.57;88.85;99363.56;5054356;28;20057;-75
2021/10/14 00:33:10;;;;;;;0.30;0.30;;;;;;;9.59;88.59;99356.19;5037422;28;20053;-74
2021/10/14 00:35:36;;;;;;;0.30;0.30;;;;;;;9.55;88.77;99349.41;5063683;28;20147;-72
2021/10/14 00:38:01;;;;;;;0.30;0.30;;;;;;;9.49;89.20;99345.44;5072376;28;20135;-75
2021/10/14 00:40:29;;;;;;;0.30;0.30;;;;;;;9.52;89.57;99341.59;5037794;28;20067;-74
2021/10/14 00:42:55;;;;;;;0.30;0.30;;;;;;;9.52;89.08;99333.50;5072232;28;20049;-72
2021/10/14 00:45:21;;;;;;;0.30;0.30;;;;;;;9.45;89.65;99337.81;5054084;28;20079;-73
2021/10/14 00:47:46;;;;;;;0.30;0.30;;;;;;;9.45;89.36;99333.28;5072227;28;20044;-74
2021/10/14 00:50:12;;;;;;;0.30;0.30;;;;;;;9.47;89.54;99336.69;5064447;28;20052;-74
2021/10/14 00:52:41;;;;;;;0.30;0.30;;;;;;;9.46;89.20;99328.72;5045505;28;20076;-73
2021/10/14 00:55:07;;;;;;;0.30;0.30;;;;;;;9.43;89.03;99324.47;5054139;28;20208;-72
2021/10/14 00:57:33;;;;;;;0.30;0.30;;;;;;;9.42;88.68;99323.63;5072224;28;20053;-73
2021/10/14 00:59:59;;;;;;;0.30;0.30;;;;;;;9.40;88.71;99317.53;5054051;28;20052;-73
2021/10/14 01:02:25;;;;;;;0.30;0.30;;;;;;;9.36;88.41;99321.56;5053787;28;20097;-73
2021/10/14 01:04:55;;;;;;;0.30;0.30;;;;;;;9.30;88.31;99319.44;5053810;28;20059;-72
2021/10/14 01:07:22;;;;;;;0.28;0.28;;;;;;;9.29;88.28;99323.16;5071079;28;20547;-73
2021/10/14 01:09:48;;;;;;;0.30;0.30;;;;;;;9.21;89.16;99320.34;5036558;28;20059;-74
2021/10/14 01:12:14;;;;;;;0.30;0.30;;;;;;;9.12;88.74;99314.00;5020617;28;20124;-74
2021/10/14 01:14:40;;;;;;;0.30;0.30;;;;;;;9.10;88.86;99315.16;5033992;28;20438;-73
2021/10/14 01:17:06;;;;;;;0.30;0.30;;;;;;;9.06;89.26;99321.84;5066763;28;20044;-72
2021/10/14 01:19:32;;;;;;;0.30;0.30;;;;;;;9.00;89.48;99311.69;5051240;28;20048;-73
2021/10/14 01:21:57;;;;;;;0.30;0.30;;;;;;;8.92;89.69;99324.06;5043400;28;20052;-72
2021/10/14 01:24:24;;;;;;;0.30;0.30;;;;;;;8.82;90.19;99307.06;5052237;28;20520;-74
2021/10/14 01:26:49;;;;;;;0.30;0.30;;;;;;;8.79;90.13;99320.00;5037974;28;20048;-73
2021/10/14 01:29:15;;;;;;;0.30;0.30;;;;;;;8.72;90.43;99314.34;5070979;28;20078;-73
2021/10/14 01:31:41;;;;;;;0.30;0.30;;;;;;;8.65;90.27;99308.69;5052861;28;20544;-73
2021/10/14 01:34:08;;;;;;;0.30;0.30;;;;;;;8.65;90.86;99315.94;5070680;28;20105;-75
2021/10/14 01:36:34;;;;;;;0.30;0.30;;;;;;;8.50;91.09;99303.94;5052895;28;20048;-72
2021/10/14 01:39:00;;;;;;;0.30;0.30;;;;;;;8.51;91.05;99314.53;5070818;28;20074;-72
2021/10/14 01:41:26;;;;;;;0.30;0.30;;;;;;;8.51;91.24;99311.84;5052552;28;20064;-72
2021/10/14 01:43:52;;;;;;;0.30;0.30;;;;;;;8.45;91.26;99307.91;5070478;28;20064;-72
2021/10/14 01:46:17;;;;;;;0.30;0.30;;;;;;;8.58;90.83;99325.59;5051445;28;20065;-72
2021/10/14 01:48:44;;;;;;;0.30;0.30;;;;;;;8.64;90.54;99316.94;5035831;28;20053;-72
2021/10/14 01:51:10;;;;;;;0.30;0.30;;;;;;;8.66;90.41;99312.22;5052838;28;20048;-74
2021/10/14 01:53:37;;;;;;;0.30;0.30;;;;;;;8.68;89.69;99303.00;5052519;28;20064;-73
2021/10/14 01:56:04;;;;;;;0.30;0.30;;;;;;;8.77;89.26;99311.19;5061652;28;20139;-73
2021/10/14 01:58:30;;;;;;;0.30;0.30;;;;;;;8.78;89.12;99312.91;5052195;28;20079;-72
2021/10/14 02:00:55;;;;;;;0.30;0.30;;;;;;;8.76;89.21;99299.56;5052400;28;20053;-72
2021/10/14 02:03:21;;;;;;;0.30;0.30;;;;;;;8.87;88.61;99307.47;5070345;28;20056;-72
2021/10/14 02:05:47;;;;;;;0.30;0.30;;;;;;;8.82;88.58;99290.91;5035454;28;20056;-72
2021/10/14 02:08:14;;;;;;;0.30;0.30;;;;;;;8.85;87.94;99309.47;5069992;28;20056;-72
2021/10/14 02:10:40;;;;;;;0.30;0.30;;;;;;;8.87;87.98;99312.84;5052662;28;20052;-72
2021/10/14 02:13:07;;;;;;;0.30;0.30;;;;;;;8.90;87.71;99306.31;5052478;28;20106;-72
2021/10/14 02:15:33;;;;;;;0.30;0.30;;;;;;;8.91;87.75;99308.84;5052388;28;20053;-72
2021/10/14 02:18:00;;;;;;;0.30;0.30;;;;;;;8.90;87.52;99307.16;5052407;28;20393;-75
2021/10/14 02:20:26;;;;;;;0.30;0.30;;;;;;;8.91;87.76;99308.84;5052109;28;20362;-71
2021/10/14 02:22:51;;;;;;;0.30;0.30;;;;;;;8.97;87.71;99301.19;5019245;28;20052;-74
2021/10/14 02:25:20;;;;;;;0.30;0.30;;;;;;;8.94;87.23;99297.78;5051934;28;20044;-71
2021/10/14 02:27:46;;;;;;;0.30;0.30;;;;;;;8.90;87.13;99301.78;5052502;28;20053;-71
2021/10/14 02:30:13;;;;;;;0.30;0.30;;;;;;;8.92;87.43;99293.53;5052384;28;20122;-71
2021/10/14 02:32:39;;;;;;;0.30;0.30;;;;;;;8.90;87.14;99285.59;5070546;28;20063;-72
2021/10/14 02:35:06;;;;;;;0.30;0.30;;;;;;;8.91;87.79;99290.00;5052102;28;20409;-71
2021/10/14 02:37:32;;;;;;;0.30;0.30;;;;;;;8.83;87.20;99295.28;5070694;28;20044;-72
2021/10/14 02:39:58;;;;;;;0.30;0.30;;;;;;;8.81;87.30;99280.25;5052934;28;20415;-74
2021/10/14 02:42:24;;;;;;;0.22;0.22;;;;;;;8.81;87.26;99302.69;5054130;28;20106;-73
2021/10/14 02:44:50;;;;;;;0.30;0.30;;;;;;;8.78;87.36;99294.91;5038252;28;20123;-74
2021/10/14 02:47:16;;;;;;;0.30;0.30;;;;;;;8.77;87.43;99295.03;5072907;28;20087;-76
2021/10/14 02:49:42;;;;;;;0.30;0.30;;;;;;;8.73;87.12;99305.25;5051169;28;20088;-72
2021/10/14 02:52:07;;;;;;;0.30;0.30;;;;;;;8.77;87.42;99303.94;5057721;28;20233;-72
2021/10/14 02:54:33;;;;;;;0.30;0.30;;;;;;;8.80;87.19;99303.66;5050185;28;20052;-73
2021/10/14 02:56:59;;;;;;;0.30;0.30;;;;;;;8.78;86.77;99302.97;5064041;28;20049;-71
2021/10/14 02:59:25;;;;;;;0.30;0.30;;;;;;;8.81;87.28;99307.19;5050581;28;20377;-74
2021/10/14 03:01:51;;;;;;;0.30;0.30;;;;;;;8.82;87.23;99301.69;5036611;28;20060;-72
2021/10/14 03:04:17;;;;;;;0.30;0.30;;;;;;;8.82;87.27;99292.75;5048510;28;20053;-72
2021/10/14 03:06:43;;;;;;;0.30;0.30;;;;;;;8.79;86.54;99301.97;5015537;28;20057;-73
2021/10/14 03:09:09;;;;;;;0.30;0.30;;;;;;;8.73;86.72;99299.88;5051497;28;20128;-72
2021/10/14 03:11:35;;;;;;;0.30;0.30;;;;;;;8.77;86.88;99295.88;5054688;28;20101;-74
2021/10/14 03:14:01;;;;;;;0.30;0.30;;;;;;;8.75;87.39;99292.50;5073536;28;20056;-72
2021/10/14 03:16:27;;;;;;;0.30;0.30;;;;;;;8.69;87.37;99288.53;5065230;28;20117;-72
2021/10/14 03:18:53;;;;;;;0.30;0.30;;;;;;;8.62;86.72;99287.41;5038847;28;20108;-74
2021/10/14 03:21:19;;;;;;;0.30;0.30;;;;;;;8.64;86.80;99277.34;5054937;28;20053;-71
2021/10/14 03:23:45;;;;;;;0.30;0.30;;;;;;;8.58;87.15;99279.78;5072002;28;20090;-74
2021/10/14 03:26:11;;;;;;;0.30;0.30;;;;;;;8.52;87.44;99274.97;5021983;28;20132;-72
2021/10/14 03:28:37;;;;;;;0.30;0.30;;;;;;;8.48;87.52;99270.88;5072692;28;20049;-72
2021/10/14 03:31:03;;;;;;;0.30;0.30;;;;;;;8.33;87.56;99260.56;5055081;28;20138;-74
2021/10/14 03:33:29;;;;;;;0.30;0.30;;;;;;;8.27;88.16;99271.09;5054623;28;20136;-70
2021/10/14 03:35:55;;;;;;;0.20;0.20;;;;;;;8.24;88.26;99265.97;5054995;28;20053;-73
2021/10/14 03:38:22;;;;;;;0.30;0.30;;;;;;;8.24;88.19;99266.81;5038496;28;20048;-73
2021/10/14 03:40:48;;;;;;;0.30;0.30;;;;;;;8.20;88.07;99262.72;5072647;28;20068;-75
2021/10/14 03:43:14;;;;;;;0.30;0.30;;;;;;;8.13;87.64;99248.16;5022053;28;20040;-73
2021/10/14 03:45:40;;;;;;;0.30;0.30;;;;;;;8.16;87.94;99258.63;5038663;28;20052;-73
2021/10/14 03:48:06;;;;;;;0.30;0.30;;;;;;;8.13;88.10;99253.53;5054770;28;20052;-73
2021/10/14 03:50:31;;;;;;;0.30;0.30;;;;;;;8.19;88.09;99258.31;5038115;28;20087;-72
2021/10/14 03:52:57;;;;;;;0.30;0.30;;;;;;;8.21;87.46;99251.81;5037992;28;20048;-73
2021/10/14 03:55:24;;;;;;;0.30;0.30;;;;;;;8.25;87.13;99252.38;5064404;28;20148;-75
2021/10/14 03:57:50;;;;;;;0.30;0.30;;;;;;;8.28;87.01;99246.69;5051044;28;20059;-73
2021/10/14 04:00:16;;;;;;;0.30;0.30;;;;;;;8.36;86.11;99240.56;5034093;28;20135;-75
2021/10/14 04:02:42;;;;;;;0.30;0.30;;;;;;;8.38;85.97;99236.78;5054626;28;20170;-73
2021/10/14 04:05:08;;;;;;;0.30;0.30;;;;;;;8.35;85.00;99231.63;5050189;28;20060;-73
2021/10/14 04:07:34;;;;;;;0.30;0.30;;;;;;;8.40;84.93;99226.69;5044556;28;20072;-75
2021/10/14 04:10:03;;;;;;;0.30;0.30;;;;;;;8.33;85.14;99222.84;5054416;28;20059;-74
2021/10/14 04:12:29;;;;;;;0.30;0.30;;;;;;;8.37;84.95;99229.69;5053936;28;20055;-75
2021/10/14 04:14:56;;;;;;;0.30;0.30;;;;;;;8.35;84.95;99215.47;5054042;28;20060;-74
2021/10/14 04:17:22;;;;;;;0.30;0.30;;;;;;;8.30;84.52;99198.94;5054098;28;20053;-74
2021/10/14 04:19:50;;;;;;;0.30;0.30;;;;;;;8.33;83.86;99189.69;5053036;28;20059;-73
2021/10/14 04:22:16;;;;;;;0.30;0.30;;;;;;;8.40;83.66;99191.66;5037301;28;20052;-74
2021/10/14 04:24:42;;;;;;;0.30;0.30;;;;;;;8.32;83.48;99188.84;5037331;28;20067;-74
2021/10/14 04:27:08;;;;;;;0.30;0.30;;;;;;;8.28;83.50;99187.44;5071397;28;20075;-75
2021/10/14 04:29:36;;;;;;;0.30;0.30;;;;;;;8.36;83.54;99195.63;5051558;28;20056;-73
2021/10/14 04:32:07;;;;;;;0.30;0.30;;;;;;;8.31;82.30;99181.75;5056506;28;20056;-75
2021/10/14 04:34:33;;;;;;;0.30;0.30;;;;;;;8.39;81.59;99189.97;5052035;28;20057;-73
2021/10/14 04:37:05;;;;;;;0.30;0.30;;;;;;;8.38;82.30;99188.28;5040595;28;20431;-74
2021/10/14 04:39:36;;;;;;;0.30;0.30;;;;;;;8.36;80.90;99187.53;5053703;28;20059;-74
2021/10/14 04:42:03;;;;;;;0.30;0.30;;;;;;;8.35;80.61;99193.94;5068467;28;20052;-71
2021/10/14 04:44:29;;;;;;;0.30;0.30;;;;;;;8.32;80.84;99188.84;5038874;28;20048;-72
2021/10/14 04:46:55;;;;;;;0.40;0.30;;;;;;;8.28;80.89;99190.13;5041666;28;20055;-71
2021/10/14 04:49:21;;;;;;;0.30;0.30;;;;;;;8.27;80.36;99191.13;5054437;28;20056;-73
2021/10/14 04:51:46;;;;;;;0.35;0.35;;;;;;;8.31;80.51;99181.75;5038651;28;20048;-73
2021/10/14 04:54:12;;;;;;;0.30;0.30;;;;;;;8.28;79.73;99179.38;5051227;28;20124;-74
2021/10/14 04:56:38;;;;;;;0.30;0.30;;;;;;;8.32;79.39;99177.22;5054122;28;20064;-74
2021/10/14 04:59:04;;;;;;;0.65;0.30;;;;;;;8.25;78.89;99171.56;5054004;28;20044;-74
2021/10/14 05:01:30;;;;;;;0.30;0.30;;;;;;;8.30;78.59;99169.31;5057276;28;20126;-74
2021/10/14 05:03:56;;;;;;;0.30;0.30;;;;;;;8.36;78.26;99189.41;5018381;28;20056;-74
2021/10/14 05:06:22;;;;;;;0.30;0.30;;;;;;;8.32;78.59;99186.16;4994261;28;20049;-74
2021/10/14 05:08:48;;;;;;;0.30;0.30;;;;;;;8.33;78.59;99198.59;5049971;28;20139;-75
2021/10/14 05:11:14;;;;;;;0.30;0.30;;;;;;;8.33;78.37;99190.53;5069712;28;20102;-72
2021/10/14 05:13:40;;;;;;;0.30;0.30;;;;;;;8.33;78.08;99189.69;5048794;28;20050;-75
2021/10/14 05:16:06;;;;;;;0.30;0.30;;;;;;;8.34;77.22;99186.03;5053925;28;20526;-74
2021/10/14 05:18:32;;;;;;;0.30;0.30;;;;;;;8.27;76.78;99180.38;5055207;28;20389;-76
2021/10/14 05:20:59;;;;;;;0.30;0.30;;;;;;;8.34;77.02;99184.16;5039869;28;20060;-74
2021/10/14 05:23:25;;;;;;;0.30;0.30;;;;;;;8.37;76.94;99170.44;5049255;28;20072;-76
2021/10/14 05:25:50;;;;;;;0.30;0.30;;;;;;;8.40;76.76;99175.50;5053747;28;20522;-75
2021/10/14 05:28:16;;;;;;;0.30;0.30;;;;;;;8.43;76.20;99167.13;5054351;28;20060;-74
2021/10/14 05:30:42;;;;;;;0.30;0.30;;;;;;;8.47;76.54;99164.16;5061588;28;20530;-76
2021/10/14 05:33:08;;;;;;;0.30;0.30;;;;;;;8.47;75.57;99169.53;5073751;28;20048;-73
2021/10/14 05:35:34;;;;;;;0.30;0.30;;;;;;;8.53;76.17;99168.94;5063986;28;20053;-78
2021/10/14 05:38:01;;;;;;;0.30;0.30;;;;;;;8.51;75.44;99160.16;5049442;28;20144;-72
2021/10/14 05:40:28;;;;;;;0.30;0.30;;;;;;;8.49;75.83;99146.00;5049293;28;20049;-72
2021/10/14 05:42:54;;;;;;;0.30;0.30;;;;;;;8.53;75.00;99153.63;5044819;28;20125;-74
2021/10/14 05:45:20;;;;;;;0.30;0.30;;;;;;;8.57;75.25;99138.00;5014591;28;20065;-72
2021/10/14 05:47:45;;;;;;;0.30;0.30;;;;;;;8.57;74.76;99146.94;5060709;28;20072;-74
2021/10/14 05:50:11;;;;;;;0.30;0.30;;;;;;;8.63;74.82;99158.97;5034761;28;20145;-71
2021/10/14 05:52:38;;;;;;;0.30;0.30;;;;;;;8.65;74.44;99168.56;5028226;28;20064;-73
2021/10/14 05:55:04;;;;;;;0.30;0.30;;;;;;;8.63;74.39;99164.34;5053143;28;20058;-74
2021/10/14 05:57:30;;;;;;;0.30;0.30;;;;;;;8.66;72.64;99166.72;5020620;28;20060;-77
2021/10/14 05:59:56;;;;;;;0.30;0.30;;;;;;;8.69;72.50;99161.03;5033501;28;20143;-75
2021/10/14 06:02:22;;;;;;;0.30;0.30;;;;;;;8.75;72.09;99157.75;5033280;28;20045;-73
2021/10/14 06:04:49;;;;;;;0.30;0.30;;;;;;;8.76;69.97;99154.03;5072345;28;20114;-74
2021/10/14 06:07:14;;;;;;;0.30;0.30;;;;;;;8.84;70.84;99155.97;5049138;28;20152;-73
2021/10/14 06:09:40;;;;;;;0.30;0.30;;;;;;;8.89;70.50;99159.06;5068927;28;20060;-74
2021/10/14 06:12:06;;;;;;;0.30;0.30;;;;;;;8.84;70.40;99155.97;5058405;28;20044;-73
2021/10/14 06:14:32;;;;;;;0.30;0.30;;;;;;;8.82;69.29;99153.44;5071281;28;20454;-73
2021/10/14 06:16:58;;;;;;;0.30;0.30;;;;;;;8.82;70.40;99153.44;5052784;28;20508;-74
2021/10/14 06:19:24;;;;;;;0.30;0.30;;;;;;;8.84;70.42;99146.03;5052349;28;20097;-73
2021/10/14 06:21:50;;;;;;;0.30;0.30;;;;;;;8.86;69.39;99149.44;5068169;28;20535;-73
2021/10/14 06:24:16;;;;;;;0.40;0.40;;;;;;;8.89;68.45;99137.50;5047044;28;20126;-75
2021/10/14 06:26:41;;;;;;;0.40;0.40;;;;;;;8.87;68.42;99134.09;5051555;28;20060;-73
2021/10/14 06:29:07;;;;;;;0.40;0.40;;;;;;;8.92;68.08;99132.66;5048417;28;20096;-73
2021/10/14 06:31:33;;;;;;;0.40;0.40;;;;;;;9.04;68.41;99132.44;5051089;28;20090;-73
2021/10/14 06:33:59;;;;;;;0.40;0.40;;;;;;;8.98;67.91;99124.94;5020761;28;20048;-72
2021/10/14 06:36:25;;;;;;;0.30;0.30;;;;;;;9.00;68.52;99134.59;5057291;28;20595;-72
2021/10/14 06:38:51;;;;;;;0.30;0.30;;;;;;;8.98;68.91;99141.13;5032080;28;20099;-74
2021/10/14 06:41:17;;;;;;;0.30;0.30;;;;;;;9.01;68.72;99132.72;5056325;28;20139;-73
2021/10/14 06:43:43;;;;;;;0.30;0.30;;;;;;;8.99;69.26;99121.25;5057744;28;20045;-73
2021/10/14 06:46:09;;;;;;;0.30;0.30;;;;;;;8.93;69.01;99126.25;5050843;28;20066;-74
2021/10/14 06:48:35;;;;;;;0.30;0.30;;;;;;;8.84;69.51;99124.47;5047890;28;20563;-74
2021/10/14 06:51:01;;;;;;;0.30;0.30;;;;;;;8.76;69.91;99131.63;5053338;28;20056;-72
2021/10/14 06:53:27;;;;;;;0.30;0.30;;;;;;;8.69;70.34;99128.69;5059543;28;20076;-73
2021/10/14 06:55:52;;;;;;;0.30;0.30;;;;;;;8.65;70.89;99127.31;5052574;28;20059;-74
2021/10/14 06:58:18;;;;;;;0.30;0.30;;;;;;;8.65;72.02;99133.53;5018803;28;20041;-74
2021/10/14 07:00:44;;;;;;;0.30;0.30;;;;;;;8.65;71.27;99130.00;5053381;28;20061;-74
2021/10/14 07:03:10;;;;;;;0.30;0.30;;;;;;;8.61;72.28;99128.63;5034651;28;20098;-74
2021/10/14 07:05:36;;;;;;;0.30;0.30;;;;;;;8.61;71.43;99128.63;5050821;28;20088;-71
2021/10/14 07:08:02;;;;;;;0.30;0.30;;;;;;;8.62;71.56;99138.38;5048324;28;20048;-74
2021/10/14 07:10:28;;;;;;;0.40;0.40;;;;;;;8.66;70.19;99131.69;5036425;28;20479;-74
2021/10/14 07:12:54;;;;;;;0.30;0.30;;;;;;;8.68;70.43;99135.09;5052929;28;20151;-73
2021/10/14 07:15:20;;;;;;;0.30;0.30;;;;;;;8.71;70.34;99123.16;5043194;28;20076;-74
2021/10/14 07:17:46;;;;;;;0.30;0.30;;;;;;;8.67;70.92;99122.63;5053938;28;20049;-74
2021/10/14 07:20:12;;;;;;;0.30;0.30;;;;;;;8.66;71.01;99126.28;5047568;28;20053;-73
2021/10/14 07:22:38;;;;;;;0.30;0.30;;;;;;;8.70;71.06;99138.47;5050277;28;20053;-74
2021/10/14 07:25:05;;;;;;;0.40;0.40;;;;;;;8.65;71.25;99146.16;5064686;28;20060;-73
2021/10/14 07:27:31;;;;;;;0.30;0.30;;;;;;;8.59;70.93;99125.22;5039485;28;20500;-75
2021/10/14 07:29:58;;;;;;;0.30;0.30;;;;;;;8.65;70.74;99146.16;5069068;28;20052;-73
2021/10/14 07:32:23;;;;;;;0.30;0.30;;;;;;;8.60;70.93;99140.41;5071065;28;20055;-75
2021/10/14 07:34:49;;;;;;;0.30;0.30;;;;;;;8.54;70.33;99132.91;5035803;28;20044;-76
2021/10/14 07:37:19;;;;;;;0.30;0.30;;;;;;;8.54;71.10;99138.31;5051605;28;20045;-74
2021/10/14 07:39:45;;;;;;;0.30;0.30;;;;;;;8.55;69.84;99139.97;5057975;28;20155;-73
2021/10/14 07:42:11;;;;;;;0.30;0.30;;;;;;;8.57;70.50;99132.63;5052954;28;20419;-74
2021/10/14 07:44:38;;;;;;;0.30;0.30;;;;;;;8.61;71.11;99139.38;5050260;28;20044;-74
2021/10/14 07:47:05;;;;;;;0.30;0.30;;;;;;;8.61;70.27;99145.63;5049758;28;20370;-75
2021/10/14 07:49:31;;;;;;;0.30;0.30;;;;;;;8.62;70.17;99141.06;5066730;28;20052;-74
2021/10/14 07:51:56;;;;;;;0.30;0.30;;;;;;;8.61;70.89;99134.00;5055299;28;20051;-74
2021/10/14 07:54:22;;;;;;;0.40;0.40;;;;;;;8.63;70.30;99132.03;5032813;28;20065;-74
2021/10/14 07:56:48;;;;;;;0.30;0.30;;;;;;;8.66;70.04;99132.53;5052192;28;20538;-72
2021/10/14 07:59:14;;;;;;;0.30;0.30;;;;;;;8.65;70.31;99130.00;5045280;28;20049;-75
2021/10/14 08:01:39;;;;;;;0.40;0.40;;;;;;;8.63;70.36;99121.25;5035597;28;20472;-74
2021/10/14 08:04:05;;;;;;;0.30;0.30;;;;;;;8.65;70.72;99113.84;5050545;28;20059;-78
2021/10/14 08:06:31;;;;;;;0.30;0.30;;;;;;;8.68;70.07;99108.16;5017451;28;20109;-74
2021/10/14 08:08:57;;;;;;;0.30;0.30;;;;;;;8.69;69.82;99116.06;5068434;28;20060;-71
2021/10/14 08:11:23;;;;;;;0.30;0.30;;;;;;;8.75;70.17;99111.94;5032886;28;20052;-73
2021/10/14 08:13:49;;;;;;;0.40;0.40;;;;;;;8.83;69.90;99111.16;5064667;28;20088;-75
2021/10/14 08:16:14;;;;;;;0.40;0.40;;;;;;;8.91;70.26;99106.69;5047823;28;20053;-73
2021/10/14 08:18:40;;;;;;;0.40;0.40;;;;;;;8.99;69.43;99105.91;5051370;28;20060;-73
2021/10/14 08:21:06;;;;;;;0.40;0.40;;;;;;;9.14;69.14;99099.00;5029792;28;20045;-74
2021/10/14 08:23:32;;;;;;;0.40;0.40;;;;;;;9.28;68.14;99105.66;5069662;28;20044;-74
2021/10/14 08:25:57;;;;;;;0.40;0.40;;;;;;;9.44;68.21;99104.94;5050362;28;20060;-73
2021/10/14 08:28:24;;;;;;;0.30;0.30;;;;;;;9.52;68.35;99106.84;5065274;28;20112;-74
2021/10/14 08:30:50;;;;;;;0.40;0.40;;;;;;;9.58;67.69;99103.50;5068614;28;20421;-74
2021/10/14 08:33:17;;;;;;;0.40;0.40;;;;;;;9.66;67.50;99106.28;5017607;28;20472;-72
2021/10/14 08:35:43;;;;;;;0.40;0.40;;;;;;;9.66;67.14;99114.38;5061497;28;20100;-75
2021/10/14 08:38:11;;;;;;;0.30;0.30;;;;;;;9.60;66.47;99106.91;5046665;28;20139;-73
2021/10/14 08:40:38;;;;;;;0.30;0.30;;;;;;;9.54;65.67;99105.72;5041825;28;20047;-75
2021/10/14 08:43:09;;;;;;;0.30;0.30;;;;;;;9.35;66.76;99095.09;5045745;28;20044;-73
2021/10/14 08:45:36;;;;;;;0.30;0.30;;;;;;;9.28;66.49;99100.25;5057396;28;20045;-75
2021/10/14 08:48:03;;;;;;;0.30;0.30;;;;;;;9.22;66.48;99100.91;5068197;28;20483;-73
2021/10/14 08:50:29;;;;;;;0.30;0.30;;;;;;;9.13;66.74;99091.03;5050338;28;20543;-74
2021/10/14 08:52:54;;;;;;;0.30;0.30;;;;;;;9.10;66.64;99092.19;5068781;28;20052;-73
2021/10/14 08:55:20;;;;;;;0.30;0.30;;;;;;;9.16;67.05;99091.56;5060824;28;20060;-73
2021/10/14 08:57:46;;;;;;;0.30;0.30;;;;;;;9.24;66.81;99088.09;5052169;28;20060;-75
2021/10/14 09:00:13;;;;;;;0.40;0.40;;;;;;;9.24;67.67;99082.69;5036016;28;20045;-76
2021/10/14 09:02:40;;;;;;;0.40;0.40;;;;;;;9.32;67.42;99090.84;5034414;28;20061;-71
2021/10/14 09:05:09;;;;;;;0.30;0.30;;;;;;;9.27;67.82;99082.38;5050851;28;20044;-75
2021/10/14 09:07:35;;;;;;;0.30;0.30;;;;;;;9.24;66.48;99085.41;5032452;28;20056;-71
2021/10/14 09:10:04;;;;;;;0.30;0.30;;;;;;;9.17;67.22;99081.63;5063709;28;20056;-72
2021/10/14 09:12:36;;;;;;;0.30;0.30;;;;;;;9.10;68.44;99075.16;5062791;28;20139;-77
2021/10/14 09:15:09;;;;;;;0.30;0.30;;;;;;;9.10;67.57;99083.25;5042123;28;20063;-70
2021/10/14 09:17:36;;;;;;;0.30;0.30;;;;;;;9.11;68.34;99082.28;5043927;28;20041;-69
2021/10/14 09:20:20;;;;;;;0.30;0.30;;;;;;;9.02;68.50;99070.56;5035902;28;20416;-72
2021/10/14 09:22:57;;;;;;;0.30;0.30;;;;;;;9.07;69.14;99087.13;5057570;28;20065;-76
2021/10/14 09:25:50;;;;;;;0.30;0.30;;;;;;;8.93;69.63;99069.66;5055581;28;20127;-71
2021/10/14 09:28:21;;;;;;;0.30;0.30;;;;;;;8.84;70.06;99075.94;5034957;28;20564;-73
2021/10/14 09:31:03;;;;;;;0.30;0.30;;;;;;;8.86;69.55;99082.06;5039577;28;20210;-70
2021/10/14 09:34:00;;;;;;;0.32;0.32;;;;;;;8.81;70.27;99081.69;5037516;28;20045;-71
2021/10/14 09:36:40;;;;;;;0.40;0.40;;;;;;;8.86;71.53;99076.66;5032844;28;20084;-69
2021/10/14 09:39:07;;;;;;;0.30;0.30;;;;;;;8.81;71.50;99076.28;5026108;28;20077;-72
2021/10/14 09:41:41;;;;;;;0.30;0.30;;;;;;;8.74;71.75;99082.41;5006518;28;20056;-72
2021/10/14 09:44:13;;;;;;;0.30;0.30;;;;;;;8.71;72.24;99080.91;5030192;28;20097;-73
2021/10/14 09:46:40;;;;;;;0.30;0.30;;;;;;;8.65;72.71;99076.13;5049311;28;20064;-74
2021/10/14 09:49:09;;;;;;;0.30;0.30;;;;;;;8.58;73.03;99073.19;5056755;28;20053;-69
2021/10/14 09:51:36;;;;;;;0.40;0.40;;;;;;;8.55;72.75;99075.31;5048487;28;20148;-72
2021/10/14 09:54:02;;;;;;;0.30;0.30;;;;;;;8.41;73.71;99064.09;5054555;28;20071;-72
2021/10/14 09:56:29;;;;;;;0.30;0.30;;;;;;;8.44;75.87;99074.53;5031881;28;20050;-72
2021/10/14 09:58:57;;;;;;;0.30;0.30;;;;;;;8.36;76.75;99076.28;5045838;28;20124;-73
2021/10/14 10:01:24;;;;;;;0.40;0.40;;;;;;;8.30;77.89;99075.06;5066975;28;20044;-72
2021/10/14 10:03:50;;;;;;;0.30;0.30;;;;;;;8.21;78.80;99065.16;5040027;28;20065;-72
2021/10/14 10:06:16;;;;;;;0.40;0.40;;;;;;;8.11;79.75;99057.13;5037714;28;20056;-73
2021/10/14 10:08:43;;;;;;;0.40;0.40;;;;;;;8.05;78.83;99067.69;5047975;28;20084;-72
2021/10/14 10:11:13;;;;;;;0.30;0.30;;;;;;;7.97;79.27;99060.31;5034627;28;20080;-73
2021/10/14 10:13:44;;;;;;;0.30;0.30;;;;;;;7.97;79.67;99065.72;5051204;28;20059;-74
2021/10/14 10:16:17;;;;;;;0.38;0.38;;;;;;;7.96;79.51;99072.09;5051810;28;20491;-72
2021/10/14 10:18:47;;;;;;;0.30;0.30;;;;;;;7.94;80.59;99066.03;5014545;28;20053;-72
2021/10/14 10:21:31;;;;;;;0.40;0.40;;;;;;;7.93;79.58;99081.34;5070522;28;20552;-73
2021/10/14 10:24:00;;;;;;;0.30;0.30;;;;;;;7.85;79.52;99073.13;5070202;28;20054;-72
2021/10/14 10:26:32;;;;;;;0.30;0.30;;;;;;;7.83;79.24;99068.91;5054028;28;20139;-73
2021/10/14 10:29:00;;;;;;;0.30;0.30;;;;;;;7.82;79.62;99070.72;5037206;28;20498;-75
2021/10/14 10:31:51;;;;;;;0.30;0.30;;;;;;;7.80;80.46;99053.91;5053925;28;20056;-73
2021/10/14 10:34:43;;;;;;;0.30;0.30;;;;;;;7.88;81.14;99058.53;5069368;28;20139;-73
2021/10/14 10:37:18;;;;;;;0.35;0.35;;;;;;;7.89;80.82;99052.16;5060112;28;20048;-72
2021/10/14 10:39:55;;;;;;;0.40;0.40;;;;;;;7.96;82.05;99054.09;5052849;28;20059;-72
2021/10/14 10:42:27;;;;;;;0.35;0.35;;;;;;;7.95;81.33;99035.41;5069083;28;20148;-73
2021/10/14 10:44:54;;;;;;;0.30;0.30;;;;;;;8.04;81.25;99047.97;5062216;28;20446;-72
2021/10/14 10:47:39;;;;;;;0.40;0.40;;;;;;;8.14;80.84;99045.22;5069168;28;20519;-72
2021/10/14 10:50:08;;;;;;;0.40;0.40;;;;;;;8.24;79.44;99040.63;5045245;28;20051;-72
2021/10/14 10:52:36;;;;;;;0.40;0.40;;;;;;;8.28;78.81;99036.63;5042123;28;20049;-72
2021/10/14 10:55:12;;;;;;;0.40;0.40;;;;;;;8.40;78.61;99046.22;5045760;28;20106;-72
2021/10/14 10:57:48;;;;;;;0.40;0.40;;;;;;;8.43;78.57;99045.06;5050293;28;20117;-74
2021/10/14 11:00:15;;;;;;;0.40;0.40;;;;;;;8.39;78.36;99033.75;5040265;28;20048;-72
2021/10/14 11:02:42;;;;;;;0.30;0.30;;;;;;;8.39;77.87;99035.63;5049287;28;20049;-72
2021/10/14 11:05:08;;;;;;;0.40;0.40;;;;;;;8.43;76.93;99042.38;5023121;28;20080;-72
2021/10/14 11:07:34;;;;;;;0.35;0.35;;;;;;;8.31;77.18;99041.72;5048530;28;20376;-73
2021/10/14 11:09:59;;;;;;;0.40;0.40;;;;;;;8.30;77.17;99042.72;5037767;28;20051;-73
2021/10/14 11:12:25;;;;;;;0.40;0.40;;;;;;;8.20;78.06;99034.72;5051687;28;20083;-72
2021/10/14 11:14:57;;;;;;;0.40;0.40;;;;;;;8.11;77.61;99042.84;5037028;28;20111;-73
2021/10/14 11:17:33;;;;;;;0.32;0.32;;;;;;;8.10;78.17;99033.91;5012767;28;20683;-73
2021/10/14 11:20:33;;;;;;;0.32;0.32;;;;;;;8.06;78.56;99026.31;5013271;28;20077;-73
2021/10/14 11:23:06;;;;;;;0.32;0.32;;;;;;;8.07;79.47;99026.13;4983818;28;20062;-73
2021/10/14 11:25:35;;;;;;;0.40;0.40;;;;;;;8.02;80.11;99030.28;5024425;28;20045;-74
2021/10/14 11:28:04;;;;;;;0.40;0.40;;;;;;;7.98;80.36;99030.59;5011991;28;20053;-73
2021/10/14 11:30:44;;;;;;;0.30;0.30;;;;;;;7.97;81.17;99028.91;5027628;28;20045;-73
2021/10/14 11:33:32;;;;;;;0.40;0.40;;;;;;;7.94;80.31;99029.19;4995675;28;20054;-73
2021/10/14 11:36:00;;;;;;;0.40;0.40;;;;;;;8.05;80.82;99025.47;5011170;28;20160;-73
2021/10/14 11:38:28;;;;;;;0.30;0.30;;;;;;;8.10;80.42;99025.00;4996388;28;20064;-73
2021/10/14 11:41:00;;;;;;;0.40;0.40;;;;;;;8.08;80.35;99025.16;5026633;28;20536;-72
2021/10/14 11:43:32;;;;;;;0.40;0.40;;;;;;;8.12;80.86;99020.31;5011924;28;20176;-72